sensor_id;sensor_type;location;lat;lon;timestamp;P1;durP1;ratioP1;P2;durP2;ratioP2
29548;SDS011;16487;53.094;8.800;2023-03-23T00:00:02;24.90;;;22.20;;
29548;SDS011;16487;53.094;8.800;2023-03-23T00:02:36;24.00;;;15.80;;
29548;SDS011;16487;53.094;8.800;2023-03-23T00:05:02;22.67;;;19.87;;
29548;SDS011;16487;53.094;8.800;2023-03-23T00:07:29;23.70;;;19.00;;
29548;SDS011;16487;53.094;8.800;2023-03-23T00:09:55;22.93;;;18.70;;
29548;SDS011;16487;53.094;8.800;2023-03-23T00:12:22;25.83;;;20.67;;
29548;SDS011;16487;53.094;8.800;2023-03-23T00:14:51;24.17;;;17.53;;
29548;SDS011;16487;53.094;8.800;2023-03-23T00:17:18;20.47;;;18.30;;
29548;SDS011;16487;53.094;8.800;2023-03-23T00:19:44;19.37;;;16.57;;
29548;SDS011;16487;53.094;8.800;2023-03-23T00:22:11;24.10;;;16.50;;
29548;SDS011;16487;53.094;8.800;2023-03-23T00:24:38;24.43;;;18.63;;
29548;SDS011;16487;53.094;8.800;2023-03-23T00:27:04;23.00;;;19.90;;
29548;SDS011;16487;53.094;8.800;2023-03-23T00:29:30;24.37;;;19.77;;
29548;SDS011;16487;53.094;8.800;2023-03-23T00:31:58;26.00;;;21.30;;
29548;SDS011;16487;53.094;8.800;2023-03-23T00:34:24;26.83;;;22.30;;
29548;SDS011;16487;53.094;8.800;2023-03-23T00:36:51;24.80;;;18.63;;
29548;SDS011;16487;53.094;8.800;2023-03-23T00:39:19;24.63;;;21.13;;
29548;SDS011;16487;53.094;8.800;2023-03-23T00:41:47;28.43;;;21.50;;
29548;SDS011;16487;53.094;8.800;2023-03-23T00:44:13;21.80;;;14.00;;
29548;SDS011;16487;53.094;8.800;2023-03-23T00:46:40;23.23;;;18.90;;
29548;SDS011;16487;53.094;8.800;2023-03-23T00:49:09;20.37;;;16.70;;
29548;SDS011;16487;53.094;8.800;2023-03-23T00:51:35;22.03;;;16.30;;
29548;SDS011;16487;53.094;8.800;2023-03-23T00:54:01;24.10;;;20.30;;
29548;SDS011;16487;53.094;8.800;2023-03-23T00:56:27;23.67;;;19.83;;
29548;SDS011;16487;53.094;8.800;2023-03-23T00:58:54;25.27;;;19.40;;
29548;SDS011;16487;53.094;8.800;2023-03-23T01:01:20;19.20;;;14.77;;
29548;SDS011;16487;53.094;8.800;2023-03-23T01:03:46;16.43;;;13.17;;
29548;SDS011;16487;53.094;8.800;2023-03-23T01:06:13;17.00;;;14.17;;
29548;SDS011;16487;53.094;8.800;2023-03-23T01:08:42;20.33;;;18.20;;
29548;SDS011;16487;53.094;8.800;2023-03-23T01:11:08;22.87;;;19.70;;
29548;SDS011;16487;53.094;8.800;2023-03-23T01:13:35;19.37;;;16.40;;
29548;SDS011;16487;53.094;8.800;2023-03-23T01:16:01;20.60;;;17.40;;
29548;SDS011;16487;53.094;8.800;2023-03-23T01:18:28;21.30;;;17.40;;
29548;SDS011;16487;53.094;8.800;2023-03-23T01:20:54;22.30;;;19.33;;
29548;SDS011;16487;53.094;8.800;2023-03-23T01:23:22;16.30;;;13.73;;
29548;SDS011;16487;53.094;8.800;2023-03-23T01:25:49;15.87;;;13.10;;
29548;SDS011;16487;53.094;8.800;2023-03-23T01:28:15;20.00;;;17.47;;
29548;SDS011;16487;53.094;8.800;2023-03-23T01:30:42;23.77;;;18.37;;
29548;SDS011;16487;53.094;8.800;2023-03-23T01:33:08;20.70;;;17.10;;
29548;SDS011;16487;53.094;8.800;2023-03-23T01:35:36;23.87;;;20.77;;
29548;SDS011;16487;53.094;8.800;2023-03-23T01:38:03;24.47;;;17.60;;
29548;SDS011;16487;53.094;8.800;2023-03-23T01:40:31;24.00;;;21.40;;
29548;SDS011;16487;53.094;8.800;2023-03-23T01:42:57;25.63;;;18.80;;
29548;SDS011;16487;53.094;8.800;2023-03-23T01:45:26;23.20;;;18.00;;
29548;SDS011;16487;53.094;8.800;2023-03-23T01:47:56;25.10;;;20.17;;
29548;SDS011;16487;53.094;8.800;2023-03-23T01:50:36;24.50;;;19.70;;
29548;SDS011;16487;53.094;8.800;2023-03-23T01:53:08;25.53;;;21.80;;
29548;SDS011;16487;53.094;8.800;2023-03-23T01:55:38;26.07;;;20.33;;
29548;SDS011;16487;53.094;8.800;2023-03-23T01:58:06;25.27;;;19.27;;
29548;SDS011;16487;53.094;8.800;2023-03-23T02:00:34;22.23;;;18.37;;
29548;SDS011;16487;53.094;8.800;2023-03-23T02:03:01;18.70;;;16.50;;
29548;SDS011;16487;53.094;8.800;2023-03-23T02:05:31;24.43;;;19.23;;
29548;SDS011;16487;53.094;8.800;2023-03-23T02:08:09;26.57;;;22.50;;
29548;SDS011;16487;53.094;8.800;2023-03-23T02:10:38;23.27;;;20.77;;
29548;SDS011;16487;53.094;8.800;2023-03-23T02:13:08;28.27;;;23.10;;
29548;SDS011;16487;53.094;8.800;2023-03-23T02:15:42;17.90;;;15.37;;
29548;SDS011;16487;53.094;8.800;2023-03-23T02:18:15;19.63;;;15.27;;
29548;SDS011;16487;53.094;8.800;2023-03-23T02:21:01;17.07;;;13.93;;
29548;SDS011;16487;53.094;8.800;2023-03-23T02:23:46;19.73;;;15.90;;
29548;SDS011;16487;53.094;8.800;2023-03-23T02:26:29;24.63;;;20.13;;
29548;SDS011;16487;53.094;8.800;2023-03-23T02:32:23;21.50;;;18.00;;
29548;SDS011;16487;53.094;8.800;2023-03-23T02:35:06;24.00;;;19.70;;
29548;SDS011;16487;53.094;8.800;2023-03-23T02:37:38;23.70;;;20.40;;
29548;SDS011;16487;53.094;8.800;2023-03-23T02:40:11;23.00;;;20.03;;
29548;SDS011;16487;53.094;8.800;2023-03-23T02:42:42;20.40;;;17.10;;
29548;SDS011;16487;53.094;8.800;2023-03-23T02:45:11;19.57;;;16.73;;
29548;SDS011;16487;53.094;8.800;2023-03-23T02:47:39;20.43;;;17.60;;
29548;SDS011;16487;53.094;8.800;2023-03-23T02:50:10;24.13;;;21.37;;
29548;SDS011;16487;53.094;8.800;2023-03-23T02:52:39;24.23;;;20.43;;
29548;SDS011;16487;53.094;8.800;2023-03-23T02:55:07;24.07;;;20.63;;
29548;SDS011;16487;53.094;8.800;2023-03-23T02:57:35;22.93;;;19.33;;
29548;SDS011;16487;53.094;8.800;2023-03-23T03:00:03;24.83;;;22.23;;
29548;SDS011;16487;53.094;8.800;2023-03-23T03:02:31;22.60;;;20.20;;
29548;SDS011;16487;53.094;8.800;2023-03-23T03:05:01;25.70;;;22.90;;
29548;SDS011;16487;53.094;8.800;2023-03-23T03:07:37;24.20;;;19.77;;
29548;SDS011;16487;53.094;8.800;2023-03-23T03:10:18;22.53;;;20.00;;
29548;SDS011;16487;53.094;8.800;2023-03-23T03:12:51;18.07;;;16.27;;
29548;SDS011;16487;53.094;8.800;2023-03-23T03:15:25;18.00;;;16.10;;
29548;SDS011;16487;53.094;8.800;2023-03-23T03:17:57;20.10;;;15.90;;
29548;SDS011;16487;53.094;8.800;2023-03-23T03:20:31;17.17;;;13.90;;
29548;SDS011;16487;53.094;8.800;2023-03-23T03:23:02;21.90;;;16.10;;
29548;SDS011;16487;53.094;8.800;2023-03-23T03:25:31;19.77;;;16.53;;
29548;SDS011;16487;53.094;8.800;2023-03-23T03:27:58;12.73;;;10.67;;
29548;SDS011;16487;53.094;8.800;2023-03-23T03:30:44;17.97;;;12.83;;
29548;SDS011;16487;53.094;8.800;2023-03-23T03:33:12;16.80;;;13.57;;
29548;SDS011;16487;53.094;8.800;2023-03-23T03:35:39;16.17;;;12.00;;
29548;SDS011;16487;53.094;8.800;2023-03-23T03:38:10;15.60;;;14.00;;
29548;SDS011;16487;53.094;8.800;2023-03-23T03:40:37;13.63;;;11.40;;
29548;SDS011;16487;53.094;8.800;2023-03-23T03:43:05;10.50;;;9.50;;
29548;SDS011;16487;53.094;8.800;2023-03-23T03:45:32;11.23;;;9.80;;
29548;SDS011;16487;53.094;8.800;2023-03-23T03:47:58;16.80;;;15.10;;
29548;SDS011;16487;53.094;8.800;2023-03-23T03:50:24;12.37;;;11.10;;
29548;SDS011;16487;53.094;8.800;2023-03-23T03:52:51;16.60;;;14.90;;
29548;SDS011;16487;53.094;8.800;2023-03-23T03:55:18;14.47;;;12.77;;
29548;SDS011;16487;53.094;8.800;2023-03-23T03:57:47;15.80;;;13.33;;
29548;SDS011;16487;53.094;8.800;2023-03-23T04:00:27;15.40;;;13.70;;
29548;SDS011;16487;53.094;8.800;2023-03-23T04:02:53;17.00;;;13.13;;
29548;SDS011;16487;53.094;8.800;2023-03-23T04:05:28;15.60;;;13.27;;
29548;SDS011;16487;53.094;8.800;2023-03-23T04:07:54;16.67;;;14.83;;
29548;SDS011;16487;53.094;8.800;2023-03-23T04:10:22;16.07;;;14.47;;
29548;SDS011;16487;53.094;8.800;2023-03-23T04:12:53;16.30;;;14.63;;
29548;SDS011;16487;53.094;8.800;2023-03-23T04:15:54;15.10;;;11.27;;
29548;SDS011;16487;53.094;8.800;2023-03-23T04:18:21;17.20;;;15.30;;
29548;SDS011;16487;53.094;8.800;2023-03-23T04:20:48;13.70;;;12.20;;
29548;SDS011;16487;53.094;8.800;2023-03-23T04:23:18;16.10;;;10.73;;
29548;SDS011;16487;53.094;8.800;2023-03-23T04:25:48;16.00;;;11.07;;
29548;SDS011;16487;53.094;8.800;2023-03-23T04:28:16;13.60;;;12.13;;
29548;SDS011;16487;53.094;8.800;2023-03-23T04:30:54;16.47;;;12.03;;
29548;SDS011;16487;53.094;8.800;2023-03-23T04:33:22;11.13;;;9.97;;
29548;SDS011;16487;53.094;8.800;2023-03-23T04:35:49;10.50;;;7.53;;
29548;SDS011;16487;53.094;8.800;2023-03-23T04:38:27;9.23;;;8.43;;
29548;SDS011;16487;53.094;8.800;2023-03-23T04:41:01;8.90;;;8.07;;
29548;SDS011;16487;53.094;8.800;2023-03-23T04:43:43;11.83;;;10.50;;
29548;SDS011;16487;53.094;8.800;2023-03-23T04:46:22;11.10;;;8.90;;
29548;SDS011;16487;53.094;8.800;2023-03-23T04:48:51;11.73;;;7.70;;
29548;SDS011;16487;53.094;8.800;2023-03-23T04:51:23;9.73;;;8.00;;
29548;SDS011;16487;53.094;8.800;2023-03-23T04:53:51;11.23;;;9.27;;
29548;SDS011;16487;53.094;8.800;2023-03-23T04:56:19;5.87;;;5.27;;
29548;SDS011;16487;53.094;8.800;2023-03-23T04:58:46;9.33;;;7.90;;
29548;SDS011;16487;53.094;8.800;2023-03-23T05:01:26;9.33;;;8.40;;
29548;SDS011;16487;53.094;8.800;2023-03-23T05:04:12;7.00;;;6.30;;
29548;SDS011;16487;53.094;8.800;2023-03-23T05:06:38;9.20;;;8.07;;
29548;SDS011;16487;53.094;8.800;2023-03-23T05:09:12;6.07;;;5.50;;
29548;SDS011;16487;53.094;8.800;2023-03-23T05:11:39;7.70;;;5.30;;
29548;SDS011;16487;53.094;8.800;2023-03-23T05:14:06;7.37;;;5.70;;
29548;SDS011;16487;53.094;8.800;2023-03-23T05:16:32;7.77;;;6.97;;
29548;SDS011;16487;53.094;8.800;2023-03-23T05:19:00;8.67;;;7.20;;
29548;SDS011;16487;53.094;8.800;2023-03-23T05:21:28;9.47;;;7.10;;
29548;SDS011;16487;53.094;8.800;2023-03-23T05:23:56;8.17;;;7.20;;
29548;SDS011;16487;53.094;8.800;2023-03-23T05:26:23;7.90;;;7.10;;
29548;SDS011;16487;53.094;8.800;2023-03-23T05:28:53;7.67;;;6.17;;
29548;SDS011;16487;53.094;8.800;2023-03-23T05:31:23;8.80;;;7.77;;
29548;SDS011;16487;53.094;8.800;2023-03-23T05:33:50;5.67;;;5.10;;
29548;SDS011;16487;53.094;8.800;2023-03-23T05:36:35;8.93;;;7.53;;
29548;SDS011;16487;53.094;8.800;2023-03-23T05:39:08;8.53;;;7.73;;
29548;SDS011;16487;53.094;8.800;2023-03-23T05:41:59;7.97;;;7.30;;
29548;SDS011;16487;53.094;8.800;2023-03-23T05:44:36;9.80;;;8.00;;
29548;SDS011;16487;53.094;8.800;2023-03-23T05:47:03;9.70;;;7.60;;
29548;SDS011;16487;53.094;8.800;2023-03-23T05:49:30;8.90;;;7.97;;
29548;SDS011;16487;53.094;8.800;2023-03-23T05:51:56;9.80;;;8.67;;
29548;SDS011;16487;53.094;8.800;2023-03-23T05:54:23;8.30;;;7.40;;
29548;SDS011;16487;53.094;8.800;2023-03-23T05:56:50;8.10;;;7.30;;
29548;SDS011;16487;53.094;8.800;2023-03-23T05:59:33;7.83;;;6.47;;
29548;SDS011;16487;53.094;8.800;2023-03-23T06:02:03;7.67;;;6.17;;
29548;SDS011;16487;53.094;8.800;2023-03-23T06:04:29;8.83;;;7.93;;
29548;SDS011;16487;53.094;8.800;2023-03-23T06:07:13;8.60;;;7.80;;
29548;SDS011;16487;53.094;8.800;2023-03-23T06:09:42;7.60;;;6.80;;
29548;SDS011;16487;53.094;8.800;2023-03-23T06:12:23;9.10;;;7.63;;
29548;SDS011;16487;53.094;8.800;2023-03-23T06:15:09;9.57;;;8.60;;
29548;SDS011;16487;53.094;8.800;2023-03-23T06:17:57;8.53;;;7.63;;
29548;SDS011;16487;53.094;8.800;2023-03-23T06:20:29;7.63;;;6.80;;
29548;SDS011;16487;53.094;8.800;2023-03-23T06:22:57;6.10;;;5.53;;
29548;SDS011;16487;53.094;8.800;2023-03-23T06:25:29;7.70;;;7.00;;
29548;SDS011;16487;53.094;8.800;2023-03-23T06:27:57;6.90;;;6.20;;
29548;SDS011;16487;53.094;8.800;2023-03-23T06:30:24;10.03;;;5.97;;
29548;SDS011;16487;53.094;8.800;2023-03-23T06:32:50;5.60;;;5.10;;
29548;SDS011;16487;53.094;8.800;2023-03-23T06:35:28;21.93;;;6.30;;
29548;SDS011;16487;53.094;8.800;2023-03-23T06:37:54;5.80;;;5.30;;
29548;SDS011;16487;53.094;8.800;2023-03-23T06:40:31;6.10;;;5.50;;
29548;SDS011;16487;53.094;8.800;2023-03-23T06:42:58;6.20;;;5.60;;
29548;SDS011;16487;53.094;8.800;2023-03-23T06:45:43;7.50;;;6.10;;
29548;SDS011;16487;53.094;8.800;2023-03-23T06:48:27;6.50;;;5.80;;
29548;SDS011;16487;53.094;8.800;2023-03-23T06:50:55;4.60;;;4.20;;
29548;SDS011;16487;53.094;8.800;2023-03-23T06:53:24;5.60;;;5.10;;
29548;SDS011;16487;53.094;8.800;2023-03-23T06:55:53;7.10;;;6.03;;
29548;SDS011;16487;53.094;8.800;2023-03-23T06:58:19;7.60;;;6.93;;
29548;SDS011;16487;53.094;8.800;2023-03-23T07:00:45;5.43;;;4.93;;
29548;SDS011;16487;53.094;8.800;2023-03-23T07:03:14;10.20;;;7.00;;
29548;SDS011;16487;53.094;8.800;2023-03-23T07:05:40;7.43;;;6.73;;
29548;SDS011;16487;53.094;8.800;2023-03-23T07:08:10;6.57;;;5.97;;
29548;SDS011;16487;53.094;8.800;2023-03-23T07:10:41;7.00;;;6.40;;
29548;SDS011;16487;53.094;8.800;2023-03-23T07:13:09;7.37;;;6.63;;
29548;SDS011;16487;53.094;8.800;2023-03-23T07:15:45;5.93;;;5.33;;
29548;SDS011;16487;53.094;8.800;2023-03-23T07:18:12;9.43;;;8.60;;
29548;SDS011;16487;53.094;8.800;2023-03-23T07:20:46;8.57;;;7.83;;
29548;SDS011;16487;53.094;8.800;2023-03-23T07:23:15;10.20;;;9.20;;
29548;SDS011;16487;53.094;8.800;2023-03-23T07:26:03;11.90;;;10.07;;
29548;SDS011;16487;53.094;8.800;2023-03-23T07:28:36;13.63;;;12.27;;
29548;SDS011;16487;53.094;8.800;2023-03-23T07:31:18;5.47;;;4.97;;
29548;SDS011;16487;53.094;8.800;2023-03-23T07:33:45;7.80;;;5.87;;
29548;SDS011;16487;53.094;8.800;2023-03-23T07:36:12;4.03;;;3.63;;
29548;SDS011;16487;53.094;8.800;2023-03-23T07:38:39;3.90;;;3.60;;
29548;SDS011;16487;53.094;8.800;2023-03-23T07:41:06;4.90;;;3.93;;
29548;SDS011;16487;53.094;8.800;2023-03-23T07:43:32;5.30;;;3.37;;
29548;SDS011;16487;53.094;8.800;2023-03-23T07:46:20;3.60;;;2.50;;
29548;SDS011;16487;53.094;8.800;2023-03-23T07:48:56;2.73;;;1.77;;
29548;SDS011;16487;53.094;8.800;2023-03-23T07:51:29;3.37;;;2.67;;
29548;SDS011;16487;53.094;8.800;2023-03-23T07:53:57;4.67;;;2.70;;
29548;SDS011;16487;53.094;8.800;2023-03-23T07:56:46;2.13;;;1.93;;
29548;SDS011;16487;53.094;8.800;2023-03-23T07:59:17;6.97;;;2.20;;
29548;SDS011;16487;53.094;8.800;2023-03-23T08:01:43;4.17;;;2.30;;
29548;SDS011;16487;53.094;8.800;2023-03-23T08:04:33;5.63;;;2.90;;
29548;SDS011;16487;53.094;8.800;2023-03-23T08:07:17;2.60;;;2.40;;
29548;SDS011;16487;53.094;8.800;2023-03-23T08:09:54;4.13;;;2.70;;
29548;SDS011;16487;53.094;8.800;2023-03-23T08:12:33;4.53;;;2.93;;
29548;SDS011;16487;53.094;8.800;2023-03-23T08:15:34;6.37;;;2.73;;
29548;SDS011;16487;53.094;8.800;2023-03-23T08:18:13;4.00;;;2.70;;
29548;SDS011;16487;53.094;8.800;2023-03-23T08:20:40;3.23;;;3.00;;
29548;SDS011;16487;53.094;8.800;2023-03-23T08:23:14;5.30;;;2.93;;
29548;SDS011;16487;53.094;8.800;2023-03-23T08:26:00;4.80;;;3.13;;
29548;SDS011;16487;53.094;8.800;2023-03-23T08:28:45;2.43;;;1.80;;
29548;SDS011;16487;53.094;8.800;2023-03-23T08:31:20;4.30;;;2.57;;
29548;SDS011;16487;53.094;8.800;2023-03-23T08:34:00;4.80;;;2.87;;
29548;SDS011;16487;53.094;8.800;2023-03-23T08:36:36;3.60;;;2.77;;
29548;SDS011;16487;53.094;8.800;2023-03-23T08:39:12;6.43;;;2.70;;
29548;SDS011;16487;53.094;8.800;2023-03-23T08:42:06;4.40;;;2.70;;
29548;SDS011;16487;53.094;8.800;2023-03-23T08:44:51;6.57;;;3.17;;
29548;SDS011;16487;53.094;8.800;2023-03-23T08:47:44;3.13;;;2.70;;
29548;SDS011;16487;53.094;8.800;2023-03-23T08:50:34;9.33;;;3.27;;
29548;SDS011;16487;53.094;8.800;2023-03-23T08:53:24;7.20;;;3.77;;
29548;SDS011;16487;53.094;8.800;2023-03-23T08:56:04;8.00;;;3.30;;
29548;SDS011;16487;53.094;8.800;2023-03-23T08:59:02;8.57;;;3.30;;
29548;SDS011;16487;53.094;8.800;2023-03-23T09:01:52;8.03;;;3.40;;
29548;SDS011;16487;53.094;8.800;2023-03-23T09:04:42;7.20;;;3.53;;
29548;SDS011;16487;53.094;8.800;2023-03-23T09:07:20;7.33;;;3.80;;
29548;SDS011;16487;53.094;8.800;2023-03-23T09:09:46;4.30;;;3.73;;
29548;SDS011;16487;53.094;8.800;2023-03-23T09:12:13;7.27;;;3.50;;
29548;SDS011;16487;53.094;8.800;2023-03-23T09:14:41;8.33;;;3.70;;
29548;SDS011;16487;53.094;8.800;2023-03-23T09:17:07;10.83;;;3.93;;
29548;SDS011;16487;53.094;8.800;2023-03-23T09:19:33;6.83;;;4.40;;
29548;SDS011;16487;53.094;8.800;2023-03-23T09:22:00;10.27;;;3.73;;
29548;SDS011;16487;53.094;8.800;2023-03-23T09:24:27;8.33;;;4.00;;
29548;SDS011;16487;53.094;8.800;2023-03-23T09:26:53;14.00;;;5.13;;
29548;SDS011;16487;53.094;8.800;2023-03-23T09:29:19;8.33;;;4.07;;
29548;SDS011;16487;53.094;8.800;2023-03-23T09:31:47;6.93;;;3.80;;
29548;SDS011;16487;53.094;8.800;2023-03-23T09:34:13;5.53;;;2.60;;
29548;SDS011;16487;53.094;8.800;2023-03-23T09:36:40;8.77;;;3.67;;
29548;SDS011;16487;53.094;8.800;2023-03-23T09:39:07;6.17;;;3.10;;
29548;SDS011;16487;53.094;8.800;2023-03-23T09:41:37;10.37;;;3.60;;
29548;SDS011;16487;53.094;8.800;2023-03-23T09:44:19;5.17;;;3.30;;
29548;SDS011;16487;53.094;8.800;2023-03-23T09:46:56;5.00;;;2.90;;
29548;SDS011;16487;53.094;8.800;2023-03-23T09:49:29;5.43;;;2.60;;
29548;SDS011;16487;53.094;8.800;2023-03-23T09:52:00;4.73;;;2.40;;
29548;SDS011;16487;53.094;8.800;2023-03-23T09:54:30;5.20;;;2.93;;
29548;SDS011;16487;53.094;8.800;2023-03-23T09:57:00;6.33;;;2.83;;
29548;SDS011;16487;53.094;8.800;2023-03-23T09:59:29;3.70;;;2.20;;
29548;SDS011;16487;53.094;8.800;2023-03-23T10:02:04;3.07;;;2.23;;
29548;SDS011;16487;53.094;8.800;2023-03-23T10:04:41;7.50;;;3.00;;
29548;SDS011;16487;53.094;8.800;2023-03-23T10:07:11;5.80;;;3.73;;
29548;SDS011;16487;53.094;8.800;2023-03-23T10:09:39;5.70;;;3.50;;
29548;SDS011;16487;53.094;8.800;2023-03-23T10:12:09;3.57;;;1.70;;
29548;SDS011;16487;53.094;8.800;2023-03-23T10:14:47;3.27;;;2.60;;
29548;SDS011;16487;53.094;8.800;2023-03-23T10:17:24;7.70;;;3.53;;
29548;SDS011;16487;53.094;8.800;2023-03-23T10:19:55;4.20;;;2.00;;
29548;SDS011;16487;53.094;8.800;2023-03-23T10:22:29;7.60;;;3.47;;
29548;SDS011;16487;53.094;8.800;2023-03-23T10:25:01;6.97;;;3.20;;
29548;SDS011;16487;53.094;8.800;2023-03-23T10:27:33;5.97;;;3.20;;
29548;SDS011;16487;53.094;8.800;2023-03-23T10:30:05;10.10;;;3.67;;
29548;SDS011;16487;53.094;8.800;2023-03-23T10:32:43;9.20;;;4.17;;
29548;SDS011;16487;53.094;8.800;2023-03-23T10:35:13;6.43;;;3.00;;
29548;SDS011;16487;53.094;8.800;2023-03-23T10:37:44;5.83;;;2.70;;
29548;SDS011;16487;53.094;8.800;2023-03-23T10:40:15;8.53;;;3.70;;
29548;SDS011;16487;53.094;8.800;2023-03-23T10:42:44;8.73;;;3.70;;
29548;SDS011;16487;53.094;8.800;2023-03-23T10:45:13;3.07;;;2.70;;
29548;SDS011;16487;53.094;8.800;2023-03-23T10:47:44;5.43;;;3.37;;
29548;SDS011;16487;53.094;8.800;2023-03-23T10:50:15;6.50;;;4.07;;
29548;SDS011;16487;53.094;8.800;2023-03-23T10:52:43;4.73;;;3.50;;
29548;SDS011;16487;53.094;8.800;2023-03-23T10:55:11;5.97;;;3.80;;
29548;SDS011;16487;53.094;8.800;2023-03-23T10:57:40;3.70;;;2.70;;
29548;SDS011;16487;53.094;8.800;2023-03-23T11:00:16;4.93;;;3.07;;
29548;SDS011;16487;53.094;8.800;2023-03-23T11:02:47;7.27;;;2.43;;
29548;SDS011;16487;53.094;8.800;2023-03-23T11:05:23;7.00;;;4.20;;
29548;SDS011;16487;53.094;8.800;2023-03-23T11:07:52;4.77;;;3.20;;
29548;SDS011;16487;53.094;8.800;2023-03-23T11:10:21;7.03;;;3.93;;
29548;SDS011;16487;53.094;8.800;2023-03-23T11:12:49;10.50;;;3.47;;
29548;SDS011;16487;53.094;8.800;2023-03-23T11:15:21;4.33;;;2.70;;
29548;SDS011;16487;53.094;8.800;2023-03-23T11:17:56;7.03;;;3.87;;
29548;SDS011;16487;53.094;8.800;2023-03-23T11:20:25;9.77;;;3.70;;
29548;SDS011;16487;53.094;8.800;2023-03-23T11:22:52;9.60;;;4.30;;
29548;SDS011;16487;53.094;8.800;2023-03-23T11:25:19;6.47;;;3.67;;
29548;SDS011;16487;53.094;8.800;2023-03-23T11:27:46;8.17;;;3.10;;
29548;SDS011;16487;53.094;8.800;2023-03-23T11:30:18;7.93;;;3.53;;
29548;SDS011;16487;53.094;8.800;2023-03-23T11:32:48;8.07;;;3.77;;
29548;SDS011;16487;53.094;8.800;2023-03-23T11:35:17;7.90;;;3.80;;
29548;SDS011;16487;53.094;8.800;2023-03-23T11:37:47;3.67;;;2.70;;
29548;SDS011;16487;53.094;8.800;2023-03-23T11:40:15;3.97;;;3.23;;
29548;SDS011;16487;53.094;8.800;2023-03-23T11:42:44;6.13;;;4.50;;
29548;SDS011;16487;53.094;8.800;2023-03-23T11:45:16;6.33;;;3.50;;
29548;SDS011;16487;53.094;8.800;2023-03-23T11:47:48;5.90;;;2.77;;
29548;SDS011;16487;53.094;8.800;2023-03-23T11:50:22;3.67;;;2.83;;
29548;SDS011;16487;53.094;8.800;2023-03-23T11:52:52;5.20;;;3.07;;
29548;SDS011;16487;53.094;8.800;2023-03-23T11:55:26;7.03;;;3.80;;
29548;SDS011;16487;53.094;8.800;2023-03-23T11:57:56;6.37;;;4.23;;
29548;SDS011;16487;53.094;8.800;2023-03-23T12:00:27;5.27;;;3.70;;
29548;SDS011;16487;53.094;8.800;2023-03-23T12:05:59;3.63;;;3.33;;
29548;SDS011;16487;53.094;8.800;2023-03-23T12:08:42;7.10;;;3.20;;
29548;SDS011;16487;53.094;8.800;2023-03-23T12:11:20;4.70;;;2.80;;
29548;SDS011;16487;53.094;8.800;2023-03-23T12:13:54;5.33;;;3.47;;
29548;SDS011;16487;53.094;8.800;2023-03-23T12:16:30;6.53;;;3.43;;
29548;SDS011;16487;53.094;8.800;2023-03-23T12:19:12;4.93;;;2.77;;
29548;SDS011;16487;53.094;8.800;2023-03-23T12:21:48;4.83;;;2.97;;
29548;SDS011;16487;53.094;8.800;2023-03-23T12:24:38;4.60;;;3.40;;
29548;SDS011;16487;53.094;8.800;2023-03-23T12:27:16;3.13;;;2.37;;
29548;SDS011;16487;53.094;8.800;2023-03-23T12:29:56;5.20;;;3.87;;
29548;SDS011;16487;53.094;8.800;2023-03-23T12:32:34;3.27;;;2.80;;
29548;SDS011;16487;53.094;8.800;2023-03-23T12:35:17;3.53;;;2.73;;
29548;SDS011;16487;53.094;8.800;2023-03-23T12:37:59;3.73;;;2.37;;
29548;SDS011;16487;53.094;8.800;2023-03-23T12:40:41;3.43;;;2.70;;
29548;SDS011;16487;53.094;8.800;2023-03-23T12:43:17;2.20;;;2.10;;
29548;SDS011;16487;53.094;8.800;2023-03-23T12:45:53;3.17;;;1.87;;
29548;SDS011;16487;53.094;8.800;2023-03-23T12:48:27;2.50;;;2.10;;
29548;SDS011;16487;53.094;8.800;2023-03-23T12:51:06;3.97;;;2.03;;
29548;SDS011;16487;53.094;8.800;2023-03-23T12:53:43;2.20;;;1.97;;
29548;SDS011;16487;53.094;8.800;2023-03-23T12:56:15;3.27;;;2.50;;
29548;SDS011;16487;53.094;8.800;2023-03-23T12:58:46;2.10;;;1.60;;
29548;SDS011;16487;53.094;8.800;2023-03-23T13:01:16;2.77;;;1.67;;
29548;SDS011;16487;53.094;8.800;2023-03-23T13:03:46;4.03;;;1.90;;
29548;SDS011;16487;53.094;8.800;2023-03-23T13:06:18;2.73;;;2.20;;
29548;SDS011;16487;53.094;8.800;2023-03-23T13:08:51;2.63;;;1.47;;
29548;SDS011;16487;53.094;8.800;2023-03-23T13:11:22;3.63;;;2.07;;
29548;SDS011;16487;53.094;8.800;2023-03-23T13:13:54;1.37;;;1.27;;
29548;SDS011;16487;53.094;8.800;2023-03-23T13:16:29;3.67;;;2.30;;
29548;SDS011;16487;53.094;8.800;2023-03-23T13:19:05;2.60;;;1.97;;
29548;SDS011;16487;53.094;8.800;2023-03-23T13:21:38;2.53;;;2.13;;
29548;SDS011;16487;53.094;8.800;2023-03-23T13:24:11;3.00;;;1.70;;
29548;SDS011;16487;53.094;8.800;2023-03-23T13:26:42;3.13;;;2.10;;
29548;SDS011;16487;53.094;8.800;2023-03-23T13:29:11;5.03;;;1.80;;
29548;SDS011;16487;53.094;8.800;2023-03-23T13:31:39;3.07;;;2.43;;
29548;SDS011;16487;53.094;8.800;2023-03-23T13:34:11;3.17;;;2.07;;
29548;SDS011;16487;53.094;8.800;2023-03-23T13:36:42;3.77;;;2.40;;
29548;SDS011;16487;53.094;8.800;2023-03-23T13:39:18;8.23;;;3.30;;
29548;SDS011;16487;53.094;8.800;2023-03-23T13:41:46;3.50;;;1.30;;
29548;SDS011;16487;53.094;8.800;2023-03-23T13:44:18;3.80;;;1.43;;
29548;SDS011;16487;53.094;8.800;2023-03-23T13:46:56;2.23;;;1.50;;
29548;SDS011;16487;53.094;8.800;2023-03-23T13:49:31;3.70;;;1.20;;
29548;SDS011;16487;53.094;8.800;2023-03-23T13:52:06;4.43;;;1.20;;
29548;SDS011;16487;53.094;8.800;2023-03-23T13:54:42;5.20;;;1.47;;
29548;SDS011;16487;53.094;8.800;2023-03-23T13:57:20;3.10;;;2.07;;
29548;SDS011;16487;53.094;8.800;2023-03-23T13:59:56;2.17;;;1.40;;
29548;SDS011;16487;53.094;8.800;2023-03-23T14:02:30;4.23;;;1.40;;
29548;SDS011;16487;53.094;8.800;2023-03-23T14:05:25;2.20;;;1.60;;
29548;SDS011;16487;53.094;8.800;2023-03-23T14:07:57;2.27;;;1.40;;
29548;SDS011;16487;53.094;8.800;2023-03-23T14:10:31;5.17;;;2.13;;
29548;SDS011;16487;53.094;8.800;2023-03-23T14:12:59;5.93;;;1.70;;
29548;SDS011;16487;53.094;8.800;2023-03-23T14:15:28;3.57;;;1.20;;
29548;SDS011;16487;53.094;8.800;2023-03-23T14:17:55;5.20;;;1.50;;
29548;SDS011;16487;53.094;8.800;2023-03-23T14:20:23;5.73;;;1.60;;
29548;SDS011;16487;53.094;8.800;2023-03-23T14:22:53;5.53;;;1.50;;
29548;SDS011;16487;53.094;8.800;2023-03-23T14:25:19;3.90;;;1.80;;
29548;SDS011;16487;53.094;8.800;2023-03-23T14:27:47;2.90;;;2.13;;
29548;SDS011;16487;53.094;8.800;2023-03-23T14:30:17;6.37;;;2.10;;
29548;SDS011;16487;53.094;8.800;2023-03-23T14:32:45;3.43;;;1.90;;
29548;SDS011;16487;53.094;8.800;2023-03-23T14:35:13;7.10;;;1.90;;
29548;SDS011;16487;53.094;8.800;2023-03-23T14:37:44;2.50;;;1.80;;
29548;SDS011;16487;53.094;8.800;2023-03-23T14:40:14;2.70;;;1.73;;
29548;SDS011;16487;53.094;8.800;2023-03-23T14:42:43;4.93;;;1.40;;
29548;SDS011;16487;53.094;8.800;2023-03-23T14:45:12;3.50;;;1.47;;
29548;SDS011;16487;53.094;8.800;2023-03-23T14:47:42;3.20;;;1.97;;
29548;SDS011;16487;53.094;8.800;2023-03-23T14:50:21;1.83;;;1.20;;
29548;SDS011;16487;53.094;8.800;2023-03-23T14:52:50;2.40;;;1.70;;
29548;SDS011;16487;53.094;8.800;2023-03-23T14:55:17;3.60;;;2.00;;
29548;SDS011;16487;53.094;8.800;2023-03-23T14:57:45;3.50;;;1.77;;
29548;SDS011;16487;53.094;8.800;2023-03-23T15:00:14;3.77;;;2.10;;
29548;SDS011;16487;53.094;8.800;2023-03-23T15:02:43;3.00;;;1.90;;
29548;SDS011;16487;53.094;8.800;2023-03-23T15:05:14;3.27;;;1.63;;
29548;SDS011;16487;53.094;8.800;2023-03-23T15:07:42;2.97;;;1.87;;
29548;SDS011;16487;53.094;8.800;2023-03-23T15:10:14;5.03;;;1.67;;
29548;SDS011;16487;53.094;8.800;2023-03-23T15:12:44;4.37;;;1.97;;